Time;durP1;ratioP1;P1;durP2;ratioP2;P2;SDS_P1;SDS_P2;PMS_P1;PMS_P2;Temp;Humidity;BMP_temperature;BMP_pressure;BME280_temperature;BME280_humidity;BME280_pressure;Samples;Min_cycle;Max_cycle;Signal;HPM_P1;HPM_P2
2021/07/14 00:00:44;;;;;;;8.07;6.23;;;;;;;;;;5078266;28;24414;-59
2021/07/14 00:03:09;;;;;;;6.65;5.75;;;;;;;;;;5097923;28;24421;-59
2021/07/14 00:05:34;;;;;;;9.00;6.00;;;;;;;;;;5089454;28;24454;-59
2021/07/14 00:07:59;;;;;;;7.30;6.00;;;;;;;;;;5109751;28;25138;-60
2021/07/14 00:10:29;;;;;;;7.53;5.95;;;;;;;;;;5086819;28;24553;-60
2021/07/14 00:13:07;;;;;;;6.72;5.82;;;;;;;;;;5097217;28;24978;-60
2021/07/14 00:23:26;;;;;;;8.18;6.80;;;;;;;;;;5100947;28;24471;-60
2021/07/14 00:25:51;;;;;;;7.55;6.00;;;;;;;;;;5080311;28;24453;-59
2021/07/14 00:28:17;;;;;;;7.63;6.20;;;;;;;;;;5096715;28;24429;-59
2021/07/14 00:30:49;;;;;;;7.85;6.38;;;;;;;;;;5089279;28;24478;-59
2021/07/14 00:33:14;;;;;;;10.18;6.90;;;;;;;;;;5099837;28;24532;-59
2021/07/14 00:35:39;;;;;;;7.00;6.30;;;;;;;;;;5091497;28;24773;-59
2021/07/14 00:38:04;;;;;;;7.70;6.67;;;;;;;;;;5100806;28;24772;-59
2021/07/14 00:40:30;;;;;;;7.70;6.70;;;;;;;;;;5097658;28;24784;-59
2021/07/14 00:42:55;;;;;;;8.67;6.80;;;;;;;;;;5098871;28;24429;-59
2021/07/14 00:45:20;;;;;;;8.40;7.00;;;;;;;;;;5096091;28;24447;-60
2021/07/14 00:47:49;;;;;;;10.35;7.00;;;;;;;;;;5090044;28;24789;-59
2021/07/14 00:50:14;;;;;;;9.73;7.32;;;;;;;;;;5094500;28;25140;-59
2021/07/14 00:52:39;;;;;;;9.27;6.83;;;;;;;;;;5108663;28;24970;-59
2021/07/14 00:55:05;;;;;;;9.60;6.80;;;;;;;;;;5098045;28;25009;-59
2021/07/14 00:57:31;;;;;;;8.00;6.97;;;;;;;;;;5101445;28;24570;-59
2021/07/14 00:59:56;;;;;;;7.45;6.75;;;;;;;;;;5097298;28;24874;-59
2021/07/14 01:02:22;;;;;;;8.23;7.43;;;;;;;;;;5090225;28;25065;-59
2021/07/14 01:04:51;;;;;;;8.30;7.10;;;;;;;;;;5100732;28;24474;-59
2021/07/14 01:07:16;;;;;;;7.20;6.60;;;;;;;;;;5089119;28;25061;-59
2021/07/14 01:09:52;;;;;;;7.80;7.10;;;;;;;;;;5095023;28;24953;-60
2021/07/14 01:12:25;;;;;;;7.45;6.75;;;;;;;;;;5102557;28;25021;-59
2021/07/14 01:14:55;;;;;;;8.45;7.53;;;;;;;;;;5093394;28;24532;-59
2021/07/14 01:17:21;;;;;;;7.75;6.95;;;;;;;;;;5087542;28;24528;-59
2021/07/14 01:19:56;;;;;;;7.50;6.80;;;;;;;;;;5091232;28;24969;-59
2021/07/14 01:22:43;;;;;;;8.10;7.10;;;;;;;;;;5073281;28;25073;-59
2021/07/14 01:25:15;;;;;;;7.97;7.15;;;;;;;;;;5106068;27;25092;-59
2021/07/14 01:27:41;;;;;;;8.40;7.60;;;;;;;;;;5091005;28;25048;-59
2021/07/14 01:30:08;;;;;;;7.03;6.30;;;;;;;;;;5090595;28;24459;-59
2021/07/14 01:32:35;;;;;;;8.25;7.45;;;;;;;;;;5086748;28;25253;-59
2021/07/14 01:35:03;;;;;;;7.00;6.30;;;;;;;;;;5102334;28;24422;-59
2021/07/14 01:37:29;;;;;;;7.25;6.53;;;;;;;;;;5067331;28;24502;-60
2021/07/14 01:39:56;;;;;;;7.88;7.18;;;;;;;;;;5075371;28;24497;-59
2021/07/14 01:42:23;;;;;;;6.80;6.20;;;;;;;;;;5086341;28;24482;-59
2021/07/14 01:44:50;;;;;;;7.47;6.77;;;;;;;;;;5085894;28;24971;-59
2021/07/14 01:47:16;;;;;;;8.13;7.32;;;;;;;;;;5072703;28;24442;-59
2021/07/14 01:49:43;;;;;;;7.32;6.63;;;;;;;;;;5085922;28;24509;-59
2021/07/14 01:52:11;;;;;;;8.40;7.60;;;;;;;;;;5091470;28;24447;-59
2021/07/14 01:54:37;;;;;;;7.30;6.50;;;;;;;;;;5095145;28;24784;-59
2021/07/14 01:57:02;;;;;;;8.70;7.17;;;;;;;;;;5076917;28;25026;-60
2021/07/14 01:59:28;;;;;;;7.10;6.40;;;;;;;;;;5099140;28;24994;-59
2021/07/14 02:01:54;;;;;;;7.37;6.63;;;;;;;;;;5088804;28;24406;-59
2021/07/14 02:04:32;;;;;;;7.68;6.97;;;;;;;;;;5095209;28;24475;-59
2021/07/14 02:07:03;;;;;;;8.88;7.30;;;;;;;;;;5082601;28;24422;-59
2021/07/14 02:09:28;;;;;;;7.95;6.28;;;;;;;;;;5074228;28;24521;-59
2021/07/14 02:11:55;;;;;;;7.93;6.93;;;;;;;;;;5091647;28;24568;-59
2021/07/14 02:14:24;;;;;;;8.20;7.50;;;;;;;;;;5081284;28;24419;-59
2021/07/14 02:16:49;;;;;;;8.60;7.70;;;;;;;;;;5095107;28;24434;-58
2021/07/14 02:19:15;;;;;;;8.47;7.23;;;;;;;;;;5107226;28;24934;-59
2021/07/14 02:21:40;;;;;;;8.75;6.97;;;;;;;;;;5095737;28;24560;-59
2021/07/14 02:24:08;;;;;;;8.50;7.20;;;;;;;;;;5079547;28;24433;-59
2021/07/14 02:26:34;;;;;;;8.90;7.68;;;;;;;;;;5083348;28;24421;-58
2021/07/14 02:29:00;;;;;;;9.45;8.25;;;;;;;;;;5087947;28;24421;-59
2021/07/14 02:31:25;;;;;;;11.05;9.50;;;;;;;;;;5085117;28;24410;-59
2021/07/14 02:33:50;;;;;;;9.10;8.30;;;;;;;;;;5106099;28;24425;-58
2021/07/14 02:36:17;;;;;;;9.33;8.33;;;;;;;;;;5081513;28;24422;-59
2021/07/14 02:38:44;;;;;;;9.52;8.45;;;;;;;;;;5082239;28;24477;-59
2021/07/14 02:41:12;;;;;;;8.85;7.88;;;;;;;;;;5092957;28;24945;-59
2021/07/14 02:43:39;;;;;;;10.82;8.50;;;;;;;;;;5107363;28;24802;-59
2021/07/14 02:46:07;;;;;;;9.75;8.75;;;;;;;;;;5101169;28;24479;-59
2021/07/14 02:48:33;;;;;;;8.88;8.18;;;;;;;;;;5092351;28;24409;-59
2021/07/14 02:50:59;;;;;;;10.03;9.13;;;;;;;;;;5106644;28;24467;-59
2021/07/14 02:53:26;;;;;;;10.18;9.27;;;;;;;;;;5105527;28;24426;-59
2021/07/14 02:55:56;;;;;;;9.50;8.57;;;;;;;;;;5106250;28;24509;-59
2021/07/14 02:58:26;;;;;;;10.07;8.30;;;;;;;;;;5098158;28;25064;-58
2021/07/14 03:00:52;;;;;;;9.10;8.20;;;;;;;;;;5087020;28;24501;-59
2021/07/14 03:03:20;;;;;;;9.27;8.47;;;;;;;;;;5074331;28;25034;-58
2021/07/14 03:05:46;;;;;;;8.65;7.85;;;;;;;;;;5069105;28;24453;-58
2021/07/14 03:08:14;;;;;;;9.03;8.17;;;;;;;;;;5071278;28;24446;-58
2021/07/14 03:10:40;;;;;;;9.85;8.85;;;;;;;;;;5073534;28;24422;-59
2021/07/14 03:13:07;;;;;;;9.35;8.30;;;;;;;;;;5083532;28;24431;-59
2021/07/14 03:15:32;;;;;;;9.45;8.57;;;;;;;;;;5096494;28;24410;-59
2021/07/14 03:17:57;;;;;;;9.43;8.53;;;;;;;;;;5086465;28;24508;-59
2021/07/14 03:20:23;;;;;;;8.63;7.73;;;;;;;;;;5094528;28;24501;-59
2021/07/14 03:22:49;;;;;;;7.80;7.10;;;;;;;;;;5080590;28;24444;-58
2021/07/14 03:25:14;;;;;;;8.30;7.50;;;;;;;;;;5072021;28;24419;-58
2021/07/14 03:27:40;;;;;;;8.10;7.40;;;;;;;;;;5091991;28;24414;-58
2021/07/14 03:30:05;;;;;;;8.60;7.70;;;;;;;;;;5087048;28;24410;-61
2021/07/14 03:32:31;;;;;;;9.10;8.20;;;;;;;;;;5099559;28;24970;-59
2021/07/14 03:34:56;;;;;;;8.57;7.83;;;;;;;;;;5096214;28;24425;-59
2021/07/14 03:37:21;;;;;;;8.90;8.10;;;;;;;;;;5077235;28;24415;-59
2021/07/14 03:39:47;;;;;;;9.20;8.40;;;;;;;;;;5084308;27;24409;-58
2021/07/14 03:42:14;;;;;;;10.50;8.30;;;;;;;;;;5103599;28;25027;-58
2021/07/14 03:44:40;;;;;;;8.50;7.70;;;;;;;;;;5091228;28;24409;-58
2021/07/14 03:47:05;;;;;;;9.13;8.23;;;;;;;;;;5089065;28;24456;-58
2021/07/14 03:49:32;;;;;;;7.97;7.37;;;;;;;;;;5093478;28;25089;-58
2021/07/14 03:51:57;;;;;;;8.70;7.95;;;;;;;;;;5103239;28;24850;-58
2021/07/14 03:54:23;;;;;;;8.03;7.43;;;;;;;;;;5101113;28;25014;-59
2021/07/14 03:56:48;;;;;;;9.17;8.30;;;;;;;;;;5108090;28;24378;-59
2021/07/14 03:59:13;;;;;;;9.00;8.17;;;;;;;;;;5102188;28;24463;-59
2021/07/14 04:01:39;;;;;;;10.07;9.00;;;;;;;;;;5097212;28;24433;-59
2021/07/14 04:04:05;;;;;;;10.10;9.10;;;;;;;;;;5092103;28;24414;-59
2021/07/14 04:06:34;;;;;;;9.43;8.40;;;;;;;;;;5082476;28;24426;-59
2021/07/14 04:09:05;;;;;;;9.27;8.38;;;;;;;;;;5085540;28;24453;-59
2021/07/14 04:11:30;;;;;;;10.35;9.45;;;;;;;;;;5097742;28;24431;-59
2021/07/14 04:13:55;;;;;;;8.75;8.05;;;;;;;;;;5091474;28;24437;-59
2021/07/14 04:16:20;;;;;;;10.75;9.82;;;;;;;;;;5096452;28;24430;-59
2021/07/14 04:18:45;;;;;;;12.60;11.50;;;;;;;;;;5100007;28;24498;-58
2021/07/14 04:21:11;;;;;;;11.20;10.20;;;;;;;;;;5096628;28;24449;-59
2021/07/14 04:23:36;;;;;;;10.80;9.90;;;;;;;;;;5107024;28;24423;-59
2021/07/14 04:26:01;;;;;;;13.68;10.90;;;;;;;;;;5103814;27;24448;-59
2021/07/14 04:28:26;;;;;;;11.20;10.10;;;;;;;;;;5077099;28;24414;-59
2021/07/14 04:30:51;;;;;;;9.60;8.70;;;;;;;;;;5097990;28;24768;-59
2021/07/14 04:33:17;;;;;;;10.50;9.50;;;;;;;;;;5095812;28;24919;-59
2021/07/14 04:35:42;;;;;;;8.68;7.90;;;;;;;;;;5091346;28;24423;-59
2021/07/14 04:38:07;;;;;;;9.27;8.48;;;;;;;;;;5088227;28;24536;-59
2021/07/14 04:40:32;;;;;;;8.43;7.73;;;;;;;;;;5085019;28;24931;-59
2021/07/14 04:42:58;;;;;;;7.83;7.23;;;;;;;;;;5096020;28;24547;-58
2021/07/14 04:45:23;;;;;;;7.43;6.72;;;;;;;;;;5096825;28;24441;-58
2021/07/14 04:47:48;;;;;;;8.50;7.80;;;;;;;;;;5094995;28;24461;-58
2021/07/14 04:50:13;;;;;;;8.40;7.60;;;;;;;;;;5085755;28;24455;-58
2021/07/14 04:52:39;;;;;;;9.30;8.50;;;;;;;;;;5070386;28;25054;-59
2021/07/14 04:55:04;;;;;;;9.85;8.90;;;;;;;;;;5068267;28;24974;-58
2021/07/14 04:57:29;;;;;;;9.90;8.90;;;;;;;;;;5073482;28;24492;-58
2021/07/14 04:59:55;;;;;;;8.80;7.97;;;;;;;;;;5065528;28;24469;-58
2021/07/14 05:02:20;;;;;;;9.40;8.50;;;;;;;;;;5081112;28;24419;-59
2021/07/14 05:04:45;;;;;;;10.45;9.55;;;;;;;;;;5093477;28;24863;-58
2021/07/14 05:07:11;;;;;;;10.70;9.70;;;;;;;;;;5083053;28;25023;-58
2021/07/14 05:09:36;;;;;;;9.88;8.68;;;;;;;;;;5072313;28;24430;-58
2021/07/14 05:12:01;;;;;;;9.18;8.27;;;;;;;;;;5076196;28;24487;-58
2021/07/14 05:14:27;;;;;;;8.93;8.03;;;;;;;;;;5069011;28;25011;-58
2021/07/14 05:16:52;;;;;;;9.97;9.03;;;;;;;;;;5077271;28;25054;-58
2021/07/14 05:19:17;;;;;;;9.68;8.88;;;;;;;;;;5071329;28;24582;-58
2021/07/14 05:21:43;;;;;;;11.55;10.55;;;;;;;;;;5076845;28;24424;-58
2021/07/14 05:24:09;;;;;;;9.80;9.10;;;;;;;;;;5073492;28;24434;-58
2021/07/14 05:26:34;;;;;;;13.40;12.20;;;;;;;;;;5070703;28;24771;-57
2021/07/14 05:28:59;;;;;;;13.50;12.20;;;;;;;;;;5090680;28;24904;-58
2021/07/14 05:31:24;;;;;;;13.35;12.25;;;;;;;;;;5086497;28;24421;-58
2021/07/14 05:33:49;;;;;;;13.87;12.57;;;;;;;;;;5064580;28;24438;-58
2021/07/14 05:36:15;;;;;;;15.00;13.50;;;;;;;;;;5064160;28;24426;-58
2021/07/14 05:38:41;;;;;;;13.53;12.30;;;;;;;;;;5075320;28;24568;-57
2021/07/14 05:41:07;;;;;;;13.70;12.40;;;;;;;;;;5082225;28;24564;-58
2021/07/14 05:43:32;;;;;;;14.00;12.85;;;;;;;;;;5064823;28;24430;-57
2021/07/14 05:45:58;;;;;;;13.93;12.53;;;;;;;;;;5080758;28;24419;-58
2021/07/14 05:48:23;;;;;;;12.50;11.50;;;;;;;;;;5075424;28;24916;-58
2021/07/14 05:50:48;;;;;;;12.23;11.23;;;;;;;;;;5064566;28;24383;-58
2021/07/14 05:53:14;;;;;;;11.33;10.53;;;;;;;;;;5069426;28;24426;-58
2021/07/14 05:55:39;;;;;;;11.93;11.03;;;;;;;;;;5079790;28;24411;-58
2021/07/14 05:58:04;;;;;;;12.95;11.95;;;;;;;;;;5064368;28;24452;-57
2021/07/14 06:00:30;;;;;;;13.40;12.40;;;;;;;;;;5066733;28;24454;-58
2021/07/14 06:02:55;;;;;;;11.90;11.10;;;;;;;;;;5077947;28;24414;-58
2021/07/14 06:05:20;;;;;;;13.88;12.88;;;;;;;;;;5067453;28;25087;-58
2021/07/14 06:07:45;;;;;;;13.17;12.10;;;;;;;;;;5073455;28;24430;-58
2021/07/14 06:10:11;;;;;;;13.10;12.10;;;;;;;;;;5073678;28;24827;-58
2021/07/14 06:12:36;;;;;;;14.60;13.40;;;;;;;;;;5070147;28;24527;-58
2021/07/14 06:15:01;;;;;;;14.20;13.20;;;;;;;;;;5064832;28;24420;-58
2021/07/14 06:17:26;;;;;;;13.60;12.60;;;;;;;;;;5076504;28;24450;-58
2021/07/14 06:19:51;;;;;;;14.40;13.30;;;;;;;;;;5089985;28;24810;-58
2021/07/14 06:22:17;;;;;;;14.20;13.17;;;;;;;;;;5093484;28;24427;-58
2021/07/14 06:24:42;;;;;;;16.50;15.20;;;;;;;;;;5089189;28;24829;-58
2021/07/14 06:27:08;;;;;;;16.37;15.17;;;;;;;;;;5088066;28;24940;-57
2021/07/14 06:29:33;;;;;;;15.30;14.10;;;;;;;;;;5101815;28;24509;-57
2021/07/14 06:31:58;;;;;;;16.60;15.20;;;;;;;;;;5090569;28;24552;-58
2021/07/14 06:34:24;;;;;;;15.80;14.60;;;;;;;;;;5089963;28;24410;-58
2021/07/14 06:36:49;;;;;;;15.00;13.90;;;;;;;;;;5088064;28;24513;-55
2021/07/14 06:39:15;;;;;;;16.07;14.87;;;;;;;;;;5090043;28;24991;-56
2021/07/14 06:41:40;;;;;;;14.37;13.37;;;;;;;;;;5090064;28;24410;-56
2021/07/14 06:44:05;;;;;;;15.20;14.00;;;;;;;;;;5092954;28;24966;-56
2021/07/14 06:46:31;;;;;;;16.17;14.87;;;;;;;;;;5091921;28;24504;-56
2021/07/14 06:48:57;;;;;;;16.15;15.05;;;;;;;;;;5097118;28;24510;-56
2021/07/14 06:51:22;;;;;;;17.03;15.87;;;;;;;;;;5089440;28;24548;-56
2021/07/14 06:53:48;;;;;;;16.60;15.40;;;;;;;;;;5095862;27;24449;-56
2021/07/14 06:56:13;;;;;;;17.73;16.37;;;;;;;;;;5102973;28;24973;-56
2021/07/14 06:58:40;;;;;;;16.38;15.20;;;;;;;;;;5090311;28;24816;-57
2021/07/14 07:01:05;;;;;;;15.98;14.88;;;;;;;;;;5094545;28;24535;-56
2021/07/14 07:03:31;;;;;;;15.02;14.02;;;;;;;;;;5093247;28;24513;-56
2021/07/14 07:05:56;;;;;;;14.50;13.50;;;;;;;;;;5102929;28;24418;-56
2021/07/14 07:08:21;;;;;;;11.83;11.10;;;;;;;;;;5085959;28;24415;-56
2021/07/14 07:10:47;;;;;;;12.87;12.00;;;;;;;;;;5084175;28;24418;-56
2021/07/14 07:13:15;;;;;;;12.40;11.50;;;;;;;;;;5104836;28;24430;-56
2021/07/14 07:15:41;;;;;;;11.00;10.30;;;;;;;;;;5090942;28;25048;-56
2021/07/14 07:18:06;;;;;;;11.77;11.00;;;;;;;;;;5081641;28;24435;-56
2021/07/14 07:20:32;;;;;;;11.77;10.98;;;;;;;;;;5068358;28;24406;-56
2021/07/14 07:22:57;;;;;;;10.90;10.10;;;;;;;;;;5084037;28;24581;-56
2021/07/14 07:25:22;;;;;;;10.83;10.10;;;;;;;;;;5087320;28;24406;-56
2021/07/14 07:27:48;;;;;;;9.93;9.32;;;;;;;;;;5088851;28;24599;-56
2021/07/14 07:30:13;;;;;;;9.90;9.20;;;;;;;;;;5086641;28;25155;-56
2021/07/14 07:32:38;;;;;;;9.70;9.00;;;;;;;;;;5088719;28;24939;-56
2021/07/14 07:35:04;;;;;;;8.17;7.67;;;;;;;;;;5087903;28;24386;-57
2021/07/14 07:37:29;;;;;;;8.57;8.00;;;;;;;;;;5088440;28;24475;-57
2021/07/14 07:39:55;;;;;;;7.25;6.85;;;;;;;;;;5088652;28;24394;-58
2021/07/14 07:42:20;;;;;;;7.40;7.00;;;;;;;;;;5086425;28;24407;-57
2021/07/14 07:44:45;;;;;;;7.18;6.70;;;;;;;;;;5088353;28;24987;-58
2021/07/14 07:47:10;;;;;;;7.20;6.70;;;;;;;;;;5088303;28;24470;-57
2021/07/14 07:49:38;;;;;;;6.50;6.00;;;;;;;;;;5088424;28;24425;-58
2021/07/14 07:52:05;;;;;;;7.05;6.65;;;;;;;;;;5088283;28;24440;-58
2021/07/14 07:54:30;;;;;;;7.00;6.30;;;;;;;;;;5085460;28;24430;-56
2021/07/14 07:56:56;;;;;;;6.73;6.23;;;;;;;;;;5068412;28;24951;-57
2021/07/14 07:59:21;;;;;;;6.63;6.23;;;;;;;;;;5067918;28;24395;-57
2021/07/14 08:01:47;;;;;;;5.60;5.30;;;;;;;;;;5071465;28;24467;-58
2021/07/14 08:04:12;;;;;;;6.70;6.20;;;;;;;;;;5084625;28;24437;-56
2021/07/14 08:06:37;;;;;;;5.83;5.43;;;;;;;;;;5087902;28;24996;-57
2021/07/14 08:09:03;;;;;;;5.97;5.60;;;;;;;;;;5087734;28;24442;-57
2021/07/14 08:11:28;;;;;;;6.37;5.87;;;;;;;;;;5087476;28;24398;-57
2021/07/14 08:13:56;;;;;;;5.90;5.50;;;;;;;;;;5088515;28;25076;-58
2021/07/14 08:16:21;;;;;;;7.45;6.85;;;;;;;;;;5087768;28;24397;-58
2021/07/14 08:18:46;;;;;;;8.03;7.43;;;;;;;;;;5087100;28;24418;-57
2021/07/14 08:21:11;;;;;;;7.80;7.30;;;;;;;;;;5088365;28;24637;-57
2021/07/14 08:23:37;;;;;;;7.57;7.07;;;;;;;;;;5088513;28;24447;-57
2021/07/14 08:26:02;;;;;;;8.37;7.60;;;;;;;;;;5088387;28;24924;-57
2021/07/14 08:28:27;;;;;;;7.27;6.77;;;;;;;;;;5088486;28;24413;-58
2021/07/14 08:30:52;;;;;;;7.00;6.50;;;;;;;;;;5073396;28;24979;-58
2021/07/14 08:33:17;;;;;;;7.23;6.73;;;;;;;;;;5067631;28;24426;-57
2021/07/14 08:35:43;;;;;;;8.10;7.50;;;;;;;;;;5068239;28;24959;-57
2021/07/14 08:38:08;;;;;;;8.00;7.50;;;;;;;;;;5066816;28;24999;-57
2021/07/14 08:40:34;;;;;;;9.30;8.60;;;;;;;;;;5062733;28;24402;-58
2021/07/14 08:43:00;;;;;;;9.75;9.00;;;;;;;;;;5077013;28;24997;-57
2021/07/14 08:45:26;;;;;;;8.75;8.05;;;;;;;;;;5087232;28;24426;-57
2021/07/14 08:47:51;;;;;;;8.60;8.10;;;;;;;;;;5086939;28;24393;-57
2021/07/14 08:50:19;;;;;;;8.40;7.90;;;;;;;;;;5087593;28;24455;-58
2021/07/14 08:52:47;;;;;;;7.85;7.35;;;;;;;;;;5087747;28;24394;-58
2021/07/14 08:55:13;;;;;;;8.68;7.97;;;;;;;;;;5086074;28;24494;-58
2021/07/14 08:57:39;;;;;;;8.25;7.75;;;;;;;;;;5087544;28;24493;-57
2021/07/14 09:00:05;;;;;;;7.70;7.20;;;;;;;;;;5087300;28;24417;-58
2021/07/14 09:02:30;;;;;;;8.70;8.10;;;;;;;;;;5086807;28;24748;-58
2021/07/14 09:04:55;;;;;;;9.30;8.70;;;;;;;;;;5087343;28;24409;-58
2021/07/14 09:07:20;;;;;;;9.57;8.97;;;;;;;;;;5080175;28;25020;-58
2021/07/14 09:09:46;;;;;;;9.25;8.65;;;;;;;;;;5083241;28;24848;-56
2021/07/14 09:12:11;;;;;;;8.30;7.70;;;;;;;;;;5085543;28;25018;-58
2021/07/14 09:14:38;;;;;;;8.50;7.70;;;;;;;;;;5087445;28;24421;-57
2021/07/14 09:17:25;;;;;;;9.13;8.32;;;;;;;;;;5086782;28;25042;-57
2021/07/14 09:19:51;;;;;;;8.27;7.68;;;;;;;;;;5079343;28;24501;-57
2021/07/14 09:22:24;;;;;;;7.50;7.00;;;;;;;;;;5087183;28;24383;-58
2021/07/14 09:24:49;;;;;;;7.63;7.07;;;;;;;;;;5087323;28;24463;-56
2021/07/14 09:27:16;;;;;;;7.47;6.97;;;;;;;;;;5086994;28;24488;-57
2021/07/14 09:29:41;;;;;;;8.40;7.70;;;;;;;;;;5085180;28;24461;-58
2021/07/14 09:32:10;;;;;;;7.03;6.53;;;;;;;;;;5087585;28;24468;-57
2021/07/14 09:34:36;;;;;;;6.75;6.25;;;;;;;;;;5087259;28;24467;-57
2021/07/14 09:37:03;;;;;;;7.43;6.93;;;;;;;;;;5087387;28;24398;-57
2021/07/14 09:39:29;;;;;;;7.05;6.55;;;;;;;;;;5083553;28;24436;-57
2021/07/14 09:42:01;;;;;;;6.93;6.43;;;;;;;;;;5082358;28;24407;-58
2021/07/14 09:44:26;;;;;;;6.90;6.50;;;;;;;;;;5086682;28;24425;-56
2021/07/14 09:47:12;;;;;;;7.50;6.90;;;;;;;;;;5087412;28;24799;-56
2021/07/14 09:49:37;;;;;;;6.38;5.88;;;;;;;;;;5087110;28;24398;-57
2021/07/14 09:52:07;;;;;;;7.20;6.70;;;;;;;;;;5076921;28;24419;-56
2021/07/14 09:54:32;;;;;;;7.50;7.00;;;;;;;;;;5066007;28;24433;-56
2021/07/14 09:57:06;;;;;;;6.22;5.82;;;;;;;;;;5066852;28;24403;-56
2021/07/14 09:59:31;;;;;;;6.53;6.03;;;;;;;;;;5070717;28;25082;-56
2021/07/14 10:01:57;;;;;;;5.28;4.97;;;;;;;;;;5072070;28;24518;-57
2021/07/14 10:04:25;;;;;;;4.97;4.57;;;;;;;;;;5084663;28;24412;-56
2021/07/14 10:07:02;;;;;;;4.50;4.20;;;;;;;;;;5090521;28;24392;-56
2021/07/14 10:09:27;;;;;;;5.40;4.90;;;;;;;;;;5090496;28;24398;-56
2021/07/14 10:11:52;;;;;;;5.60;5.20;;;;;;;;;;5090325;28;24417;-56
2021/07/14 10:14:27;;;;;;;5.50;5.10;;;;;;;;;;5090581;28;24971;-56
2021/07/14 10:16:53;;;;;;;7.75;7.30;;;;;;;;;;5089073;28;24428;-57
2021/07/14 10:19:19;;;;;;;8.30;7.80;;;;;;;;;;5076217;28;24446;-57
2021/07/14 10:21:45;;;;;;;9.27;8.68;;;;;;;;;;5070471;28;24398;-57
2021/07/14 10:24:13;;;;;;;8.93;8.35;;;;;;;;;;5070169;28;24959;-56
2021/07/14 10:26:40;;;;;;;7.70;7.30;;;;;;;;;;5068919;28;24438;-56
2021/07/14 10:29:05;;;;;;;8.02;7.47;;;;;;;;;;5073393;28;24418;-57
2021/07/14 10:31:31;;;;;;;8.80;8.30;;;;;;;;;;5090078;28;24404;-56
2021/07/14 10:33:56;;;;;;;7.80;7.30;;;;;;;;;;5089281;28;25024;-57
2021/07/14 10:36:26;;;;;;;8.33;7.83;;;;;;;;;;5090051;28;24409;-56
2021/07/14 10:38:52;;;;;;;6.47;6.07;;;;;;;;;;5088513;28;24398;-56
2021/07/14 10:41:17;;;;;;;6.15;5.82;;;;;;;;;;5089369;28;24421;-57
2021/07/14 10:43:44;;;;;;;7.60;7.20;;;;;;;;;;5079568;28;24765;-57
2021/07/14 10:46:09;;;;;;;8.10;7.60;;;;;;;;;;5069509;28;25042;-56
2021/07/14 10:48:35;;;;;;;8.97;8.47;;;;;;;;;;5069444;28;24952;-56
2021/07/14 10:51:00;;;;;;;10.88;10.27;;;;;;;;;;5069541;28;24391;-57
2021/07/14 10:53:25;;;;;;;7.30;6.90;;;;;;;;;;5071639;28;25120;-56
2021/07/14 10:55:52;;;;;;;7.80;7.40;;;;;;;;;;5089985;28;24393;-56
2021/07/14 10:58:20;;;;;;;8.23;7.78;;;;;;;;;;5089796;28;24471;-56
2021/07/14 11:00:45;;;;;;;7.30;6.90;;;;;;;;;;5070799;28;24411;-56
2021/07/14 11:03:29;;;;;;;7.50;7.10;;;;;;;;;;5069133;28;24397;-56
2021/07/14 11:05:55;;;;;;;8.90;8.40;;;;;;;;;;5069475;28;24425;-57
2021/07/14 11:08:52;;;;;;;6.60;6.30;;;;;;;;;;5069052;28;24406;-56
2021/07/14 11:11:19;;;;;;;6.70;6.30;;;;;;;;;;5055476;28;24591;-56
2021/07/14 11:13:51;;;;;;;7.30;6.90;;;;;;;;;;5068928;28;24784;-56
2021/07/14 11:16:30;;;;;;;6.70;6.40;;;;;;;;;;5072543;28;24414;-56
2021/07/14 11:18:56;;;;;;;6.60;6.20;;;;;;;;;;5089560;28;24950;-56
2021/07/14 11:21:40;;;;;;;5.63;5.22;;;;;;;;;;5072725;28;24419;-56
2021/07/14 11:24:05;;;;;;;8.23;7.72;;;;;;;;;;5068564;28;24402;-57
2021/07/14 11:26:30;;;;;;;8.10;7.70;;;;;;;;;;5068891;28;24394;-57
2021/07/14 11:29:12;;;;;;;9.20;8.70;;;;;;;;;;5069083;28;24418;-57
2021/07/14 11:31:38;;;;;;;9.50;9.00;;;;;;;;;;5068792;28;24997;-57
2021/07/14 11:34:23;;;;;;;10.05;9.55;;;;;;;;;;5068838;28;24815;-56
2021/07/14 11:36:48;;;;;;;10.03;9.53;;;;;;;;;;5068445;28;24441;-57
2021/07/14 11:39:25;;;;;;;10.57;9.98;;;;;;;;;;5077001;28;24441;-56
2021/07/14 11:41:51;;;;;;;10.77;10.18;;;;;;;;;;5088723;28;24406;-57
2021/07/14 11:44:33;;;;;;;10.50;9.90;;;;;;;;;;5088662;28;24402;-56
2021/07/14 11:47:18;;;;;;;9.70;9.20;;;;;;;;;;5083461;28;24425;-56
2021/07/14 11:49:43;;;;;;;9.30;8.70;;;;;;;;;;5073154;28;24983;-56
2021/07/14 11:52:28;;;;;;;9.40;8.85;;;;;;;;;;5086953;28;24402;-56
2021/07/14 11:55:14;;;;;;;9.40;8.90;;;;;;;;;;5088421;28;24419;-57
2021/07/14 11:57:39;;;;;;;9.32;8.73;;;;;;;;;;5086275;28;24429;-56
2021/07/14 12:00:11;;;;;;;8.90;8.40;;;;;;;;;;5086349;28;24395;-56
2021/07/14 12:02:36;;;;;;;8.48;7.90;;;;;;;;;;5088210;28;24410;-55
2021/07/14 12:05:03;;;;;;;8.47;8.07;;;;;;;;;;5088597;28;24386;-55
2021/07/14 12:07:37;;;;;;;9.20;8.70;;;;;;;;;;5086276;28;24456;-56
2021/07/14 12:10:02;;;;;;;8.90;8.40;;;;;;;;;;5087482;28;25118;-56
2021/07/14 12:12:27;;;;;;;9.55;9.05;;;;;;;;;;5087976;28;24398;-56
2021/07/14 12:14:53;;;;;;;9.63;9.07;;;;;;;;;;5088567;28;24457;-56
2021/07/14 12:17:23;;;;;;;8.60;8.20;;;;;;;;;;5088319;28;25117;-57
2021/07/14 12:19:48;;;;;;;9.05;8.45;;;;;;;;;;5086430;28;24756;-56
2021/07/14 12:22:21;;;;;;;9.68;9.18;;;;;;;;;;5087797;28;24935;-57
2021/07/14 12:24:48;;;;;;;8.90;8.30;;;;;;;;;;5088377;28;24402;-56
2021/07/14 12:27:16;;;;;;;7.90;7.50;;;;;;;;;;5087708;28;25204;-57
2021/07/14 12:29:42;;;;;;;8.02;7.63;;;;;;;;;;5086524;28;25299;-56
2021/07/14 12:32:07;;;;;;;7.87;7.37;;;;;;;;;;5088210;28;24446;-56
2021/07/14 12:34:33;;;;;;;7.33;6.93;;;;;;;;;;5088493;28;24503;-56
2021/07/14 12:36:59;;;;;;;6.70;6.33;;;;;;;;;;5088144;28;24410;-56
2021/07/14 12:39:29;;;;;;;7.87;7.47;;;;;;;;;;5086438;28;24783;-56
2021/07/14 12:41:55;;;;;;;6.70;6.30;;;;;;;;;;5087782;28;24975;-56
2021/07/14 12:44:21;;;;;;;6.72;6.22;;;;;;;;;;5087927;28;24991;-57
2021/07/14 12:46:46;;;;;;;5.90;5.60;;;;;;;;;;5088260;28;24505;-56
2021/07/14 12:49:16;;;;;;;6.43;6.03;;;;;;;;;;5088007;28;24513;-56
2021/07/14 12:52:00;;;;;;;5.78;5.47;;;;;;;;;;5086314;28;24650;-60
2021/07/14 12:54:25;;;;;;;5.00;4.60;;;;;;;;;;5087689;28;24406;-56
2021/07/14 12:56:50;;;;;;;5.20;4.90;;;;;;;;;;5088027;28;24822;-55
2021/07/14 12:59:15;;;;;;;2.67;2.58;;;;;;;;;;5085791;28;24401;-55
2021/07/14 13:01:44;;;;;;;4.95;4.57;;;;;;;;;;5070193;28;24403;-55
2021/07/14 13:04:13;;;;;;;2.85;2.65;;;;;;;;;;5067264;28;24710;-57
2021/07/14 13:06:38;;;;;;;1.70;1.60;;;;;;;;;;5067407;28;24422;-56
2021/07/14 13:09:04;;;;;;;1.60;1.50;;;;;;;;;;5067676;28;24940;-56
2021/07/14 13:11:30;;;;;;;2.30;2.10;;;;;;;;;;5066986;28;24430;-57
2021/07/14 13:13:55;;;;;;;2.10;2.00;;;;;;;;;;5074107;28;24422;-57
2021/07/14 13:16:24;;;;;;;1.70;1.60;;;;;;;;;;5087312;28;24799;-57
2021/07/14 13:18:51;;;;;;;2.00;1.90;;;;;;;;;;5082484;28;24770;-57
2021/07/14 13:21:22;;;;;;;1.90;1.80;;;;;;;;;;5067617;28;24441;-56
2021/07/14 13:23:47;;;;;;;1.90;1.80;;;;;;;;;;5067149;28;24387;-57
2021/07/14 13:26:23;;;;;;;2.08;1.98;;;;;;;;;;5067161;28;24753;-57
2021/07/14 13:28:48;;;;;;;2.22;2.03;;;;;;;;;;5066983;28;24921;-56
2021/07/14 13:31:20;;;;;;;1.73;1.70;;;;;;;;;;5067231;28;24467;-57
2021/07/14 13:33:46;;;;;;;2.03;1.92;;;;;;;;;;5066139;28;24411;-56
2021/07/14 13:36:12;;;;;;;2.10;2.00;;;;;;;;;;5067308;28;24460;-56
2021/07/14 13:38:46;;;;;;;2.10;2.00;;;;;;;;;;5076659;28;24417;-56
2021/07/14 13:41:11;;;;;;;2.17;2.08;;;;;;;;;;5084335;28;24469;-56
2021/07/14 13:43:43;;;;;;;2.00;1.90;;;;;;;;;;5066456;28;24696;-56
2021/07/14 13:46:08;;;;;;;2.10;2.00;;;;;;;;;;5068502;28;24395;-56
2021/07/14 13:48:35;;;;;;;2.20;2.10;;;;;;;;;;5085026;28;24425;-56
2021/07/14 13:51:00;;;;;;;2.40;2.30;;;;;;;;;;5079360;28;25036;-56
2021/07/14 13:53:29;;;;;;;2.58;2.47;;;;;;;;;;5084058;28;24446;-56
2021/07/14 13:56:04;;;;;;;2.40;2.30;;;;;;;;;;5066843;28;24406;-56
2021/07/14 13:58:29;;;;;;;2.40;2.30;;;;;;;;;;5067687;28;24423;-56
2021/07/14 14:00:56;;;;;;;2.40;2.30;;;;;;;;;;5079037;28;24505;-56
2021/07/14 14:03:21;;;;;;;2.50;2.30;;;;;;;;;;5066605;28;24485;-56
2021/07/14 14:05:46;;;;;;;2.50;2.40;;;;;;;;;;5067984;28;24506;-56
2021/07/14 14:08:11;;;;;;;2.60;2.50;;;;;;;;;;5068602;28;24427;-56
2021/07/14 14:10:41;;;;;;;2.80;2.50;;;;;;;;;;5072667;28;24465;-56
2021/07/14 14:13:09;;;;;;;2.60;2.50;;;;;;;;;;5089209;28;24521;-56
2021/07/14 14:15:35;;;;;;;2.20;2.10;;;;;;;;;;5080647;28;24415;-56
2021/07/14 14:18:02;;;;;;;2.73;2.63;;;;;;;;;;5063554;28;24425;-55
2021/07/14 14:20:31;;;;;;;3.80;3.60;;;;;;;;;;5070979;28;24513;-56
2021/07/14 14:22:57;;;;;;;3.97;3.70;;;;;;;;;;5068852;28;24411;-56
2021/07/14 14:25:28;;;;;;;3.03;2.90;;;;;;;;;;5063783;28;24436;-56
2021/07/14 14:30:29;;;;;;;2.90;2.70;;;;;;;;;;5066600;28;24419;-56
2021/07/14 14:32:55;;;;;;;3.08;2.88;;;;;;;;;;5083226;28;25033;-56
2021/07/14 14:35:22;;;;;;;3.03;2.83;;;;;;;;;;5073955;28;24517;-56
2021/07/14 14:37:47;;;;;;;3.80;3.50;;;;;;;;;;5072998;28;24513;-56
2021/07/14 14:40:13;;;;;;;3.70;3.50;;;;;;;;;;5086655;28;24469;-55
2021/07/14 14:42:38;;;;;;;3.80;3.50;;;;;;;;;;5074331;28;24457;-55
2021/07/14 14:45:05;;;;;;;3.30;3.10;;;;;;;;;;5083036;28;24479;-56
2021/07/14 14:47:30;;;;;;;3.30;3.10;;;;;;;;;;5089439;28;24928;-56